Time;durP1;ratioP1;P1;durP2;ratioP2;P2;SDS_P1;SDS_P2;PMS_P1;PMS_P2;Temp;Humidity;BMP_temperature;BMP_pressure;BME280_temperature;BME280_humidity;BME280_pressure;Samples;Min_cycle;Max_cycle;Signal;HPM_P1;HPM_P2
2022/10/09 00:00:45;;;;;;;4.75;1.55;;;;;;;8.36;62.97;100809.41;4978714;28;20069;-39
2022/10/09 00:03:13;;;;;;;7.22;1.77;;;;;;;8.35;63.07;100807.66;4980032;28;20150;-39
2022/10/09 00:05:40;;;;;;;7.05;1.85;;;;;;;8.33;63.25;100805.06;4980313;28;20124;-39
2022/10/09 00:08:07;;;;;;;6.65;1.95;;;;;;;8.33;63.44;100799.88;4978565;28;20081;-39
2022/10/09 00:10:34;;;;;;;7.53;2.08;;;;;;;8.31;64.16;100791.22;4977999;28;20107;-39
2022/10/09 00:13:00;;;;;;;6.50;2.08;;;;;;;8.29;63.32;100792.94;4984364;28;20050;-39
2022/10/09 00:15:27;;;;;;;5.55;2.08;;;;;;;8.27;63.62;100789.44;4978522;28;20050;-39
2022/10/09 00:17:53;;;;;;;5.03;1.80;;;;;;;8.25;63.97;100785.09;4981711;28;20065;-40
2022/10/09 00:20:20;;;;;;;6.57;1.77;;;;;;;8.23;63.92;100792.81;4981949;28;20078;-39
2022/10/09 00:22:47;;;;;;;5.60;1.48;;;;;;;8.19;63.75;100776.41;4972998;28;20053;-39
2022/10/09 00:25:14;;;;;;;11.98;2.03;;;;;;;8.17;63.80;100780.66;4980645;28;20052;-40
2022/10/09 00:27:40;;;;;;;6.95;2.03;;;;;;;8.16;64.12;100775.47;4979568;28;20074;-39
2022/10/09 00:30:07;;;;;;;7.10;2.47;;;;;;;8.13;64.39;100770.22;4980021;28;20777;-39
2022/10/09 00:32:34;;;;;;;7.15;1.95;;;;;;;8.11;63.57;100772.81;4978324;28;20134;-39
2022/10/09 00:35:01;;;;;;;4.63;2.08;;;;;;;8.09;63.81;100769.31;4982977;28;20133;-39
2022/10/09 00:37:27;;;;;;;5.78;2.17;;;;;;;8.06;63.71;100764.09;4975902;28;20088;-39
2022/10/09 00:39:54;;;;;;;4.78;2.35;;;;;;;8.04;64.13;100763.22;4976696;28;20055;-39
2022/10/09 00:42:20;;;;;;;7.90;2.17;;;;;;;8.02;64.59;100759.72;4978169;28;20078;-39
2022/10/09 00:44:53;;;;;;;5.22;1.50;;;;;;;7.98;64.80;100759.66;4974142;28;20038;-38
2022/10/09 00:47:28;;;;;;;2.90;1.42;;;;;;;7.98;63.83;100759.66;4971612;28;20560;-39
2022/10/09 00:50:01;;;;;;;9.50;1.90;;;;;;;7.99;64.87;100763.13;4977084;28;20529;-39
2022/10/09 00:52:28;;;;;;;7.75;2.78;;;;;;;7.95;64.80;100767.34;4981619;28;20073;-39
2022/10/09 00:54:56;;;;;;;7.88;2.65;;;;;;;7.92;64.93;100767.28;4976226;28;20050;-39
2022/10/09 00:57:23;;;;;;;8.07;2.42;;;;;;;7.91;64.47;100760.38;4974391;28;20138;-39
2022/10/09 00:59:50;;;;;;;6.80;2.67;;;;;;;7.88;64.14;100759.44;4979761;28;20145;-39
2022/10/09 01:02:17;;;;;;;6.43;1.80;;;;;;;7.85;64.94;100760.25;4975350;28;20050;-39
2022/10/09 01:04:44;;;;;;;6.45;2.20;;;;;;;7.82;64.59;100753.34;4977118;28;20046;-40
2022/10/09 01:09:59;;;;;;;7.10;2.80;;;;;;;7.77;65.30;100756.66;5023105;28;20408;-40
2022/10/09 01:17:48;;;;;;;9.18;3.05;;;;;;;7.72;65.54;100757.44;5034014;28;20401;-40
2022/10/09 01:20:43;;;;;;;8.13;3.03;;;;;;;7.67;64.89;100756.47;5020235;28;20477;-40
2022/10/09 01:25:59;;;;;;;7.30;2.97;;;;;;;7.74;66.01;100746.28;5049800;27;20404;-40
2022/10/09 01:28:28;;;;;;;10.32;3.08;;;;;;;7.74;64.91;100746.28;5055191;28;20477;-40
2022/10/09 01:30:59;;;;;;;6.10;3.47;;;;;;;7.75;66.06;100738.59;5056757;28;20155;-40
2022/10/09 01:33:27;;;;;;;9.02;2.78;;;;;;;7.77;66.13;100736.03;5065420;28;20551;-40
2022/10/09 01:35:54;;;;;;;9.63;2.78;;;;;;;7.77;65.99;100736.88;5080677;28;20604;-41
2022/10/09 01:38:23;;;;;;;8.02;3.55;;;;;;;7.77;64.81;100728.31;5080761;28;20135;-41
2022/10/09 01:40:52;;;;;;;9.60;3.30;;;;;;;7.75;65.31;100728.25;5075205;28;20083;-40
2022/10/09 01:43:19;;;;;;;7.47;3.03;;;;;;;7.75;66.16;100719.66;5076353;28;20465;-41
2022/10/09 01:45:47;;;;;;;5.65;3.22;;;;;;;7.75;66.34;100727.38;5074297;28;20075;-39
2022/10/09 01:48:23;;;;;;;6.68;3.40;;;;;;;7.72;65.94;100713.59;5075821;28;20052;-40
2022/10/09 01:50:56;;;;;;;8.57;3.25;;;;;;;7.72;65.95;100717.88;5079349;28;20136;-40
2022/10/09 01:53:23;;;;;;;12.73;3.83;;;;;;;7.70;66.21;100710.13;5077502;28;20048;-41
2022/10/09 01:56:13;;;;;;;6.45;2.95;;;;;;;7.66;65.45;100708.31;5073266;28;20690;-41
2022/10/09 01:58:47;;;;;;;8.73;3.72;;;;;;;7.70;65.41;100712.69;5059664;28;20135;-40
2022/10/09 02:03:51;;;;;;;7.28;1.85;;;;;;;7.69;66.61;100699.75;5038794;27;20407;-40
2022/10/09 02:06:18;;;;;;;4.72;1.70;;;;;;;7.68;65.91;100700.63;5018975;28;20123;-40
2022/10/09 02:08:50;;;;;;;9.75;1.65;;;;;;;7.67;66.82;100698.88;5019109;28;20063;-40
2022/10/09 02:11:17;;;;;;;7.43;2.00;;;;;;;7.68;65.29;100691.19;5019717;28;20054;-40
2022/10/09 02:13:46;;;;;;;9.52;2.28;;;;;;;7.68;66.41;100685.16;5018205;28;20049;-40
2022/10/09 02:16:25;;;;;;;7.53;1.85;;;;;;;7.66;66.74;100686.81;5017148;28;20563;-40
2022/10/09 02:19:05;;;;;;;4.55;1.23;;;;;;;7.64;65.84;100684.22;5017693;28;20078;-40
2022/10/09 02:24:19;;;;;;;7.70;1.40;;;;;;;7.64;65.84;100666.19;5034707;27;20950;-40
2022/10/09 02:26:46;;;;;;;4.13;1.60;;;;;;;7.63;65.34;100667.00;5039395;28;20047;-40
2022/10/09 02:29:14;;;;;;;9.30;2.05;;;;;;;7.59;65.67;100650.63;5036734;28;20049;-40
2022/10/09 02:31:42;;;;;;;8.35;2.47;;;;;;;7.59;66.48;100649.72;5035040;28;20046;-40
2022/10/09 02:34:11;;;;;;;6.45;1.88;;;;;;;7.56;65.78;100653.13;5033242;28;20103;-39
2022/10/09 02:36:38;;;;;;;7.57;1.83;;;;;;;7.55;66.27;100650.50;5037754;28;20145;-39
2022/10/09 02:39:06;;;;;;;8.60;1.30;;;;;;;7.53;66.45;100641.91;5028196;28;20055;-40
2022/10/09 02:41:34;;;;;;;9.10;1.92;;;;;;;7.50;66.08;100644.41;5033962;28;20136;-40
2022/10/09 02:44:02;;;;;;;4.78;1.88;;;;;;;7.46;66.10;100639.19;5023291;28;20120;-40
2022/10/09 02:46:28;;;;;;;7.25;1.83;;;;;;;7.45;66.43;100636.59;5014289;28;20136;-39
2022/10/09 02:48:55;;;;;;;2.75;0.98;;;;;;;7.43;66.80;100639.13;5036722;28;20116;-40
2022/10/09 02:51:22;;;;;;;4.20;1.55;;;;;;;7.40;66.71;100631.31;5036519;28;20056;-40
2022/10/09 02:53:52;;;;;;;5.90;1.30;;;;;;;7.38;66.29;100642.44;5028802;28;20128;-40
2022/10/09 02:56:19;;;;;;;;;;;;;;;7.25;67.32;100634.47;5031013;28;20139;-40
2022/10/09 02:58:46;;;;;;;5.10;1.10;;;;;;;7.31;65.54;100633.72;5031196;28;20392;-40
2022/10/09 03:01:12;;;;;;;5.40;1.10;;;;;;;7.31;67.47;100629.47;5026749;28;20053;-40
2022/10/09 03:03:39;;;;;;;9.57;2.10;;;;;;;7.34;67.35;100633.81;5033480;28;20041;-41
2022/10/09 03:08:45;;;;;;;6.88;1.40;;;;;;;7.34;66.59;100626.06;5121051;27;20399;-40
2022/10/09 03:11:13;;;;;;;5.25;1.27;;;;;;;7.33;67.17;100634.66;5080017;28;20109;-40
2022/10/09 03:13:40;;;;;;;4.03;1.58;;;;;;;7.32;66.17;100635.47;5079658;28;20502;-40
2022/10/09 03:18:43;;;;;;;6.30;1.45;;;;;;;7.28;67.83;100619.09;5065484;27;20400;-40
2022/10/09 03:21:13;;;;;;;5.32;1.33;;;;;;;7.28;67.00;100628.50;5019684;28;20719;-40
2022/10/09 03:23:39;;;;;;;6.82;1.33;;;;;;;7.25;67.25;100624.16;5045673;28;20164;-39
2022/10/09 03:26:10;;;;;;;6.97;1.52;;;;;;;7.24;67.45;100617.28;5039366;28;20521;-40
2022/10/09 03:28:39;;;;;;;5.53;1.98;;;;;;;7.23;66.13;100614.69;5026965;28;20099;-39
2022/10/09 03:31:07;;;;;;;4.65;1.35;;;;;;;7.19;66.64;100614.59;5015679;28;20081;-39
2022/10/09 03:33:34;;;;;;;4.95;1.55;;;;;;;7.16;66.72;100614.53;5019051;28;20054;-40
2022/10/09 03:36:02;;;;;;;3.20;1.50;;;;;;;7.13;67.87;100609.31;5049775;28;20041;-40
2022/10/09 03:38:29;;;;;;;3.63;1.30;;;;;;;7.13;68.42;100604.16;5009677;28;20042;-40
2022/10/09 03:40:58;;;;;;;3.28;1.25;;;;;;;7.10;67.86;100604.13;5021838;28;20077;-40
2022/10/09 03:43:25;;;;;;;7.07;1.55;;;;;;;7.11;68.68;100599.81;5010651;28;20140;-40
2022/10/09 03:45:51;;;;;;;5.53;1.55;;;;;;;7.09;68.73;100602.38;5018190;28;20572;-39
2022/10/09 03:48:18;;;;;;;5.00;1.40;;;;;;;7.09;67.58;100604.94;5031485;28;20044;-40
2022/10/09 03:50:45;;;;;;;7.13;1.42;;;;;;;7.09;67.90;100602.38;5031032;28;20050;-40
2022/10/09 03:53:12;;;;;;;5.38;1.95;;;;;;;7.10;68.25;100611.84;5032243;28;20041;-41
2022/10/09 03:55:40;;;;;;;6.10;1.77;;;;;;;7.08;68.08;100598.06;5014333;28;20406;-40
2022/10/09 03:58:07;;;;;;;5.30;1.80;;;;;;;7.10;68.23;100603.25;5022831;28;20081;-39
2022/10/09 04:00:34;;;;;;;6.63;1.60;;;;;;;7.09;67.57;100602.38;5023422;28;20620;-40
2022/10/09 04:03:01;;;;;;;7.28;2.35;;;;;;;7.08;68.09;100598.06;5025081;28;20100;-40
2022/10/09 04:05:31;;;;;;;8.45;1.85;;;;;;;7.07;68.67;100599.75;5039495;28;20715;-40
2022/10/09 04:07:57;;;;;;;7.80;2.33;;;;;;;7.06;68.75;100597.19;5027403;28;20429;-39
2022/10/09 04:10:24;;;;;;;6.72;1.70;;;;;;;7.05;68.39;100600.56;5022124;28;20694;-39
2022/10/09 04:12:50;;;;;;;13.80;2.15;;;;;;;7.07;68.97;100599.75;5031173;28;20149;-40
2022/10/09 04:15:17;;;;;;;5.93;2.05;;;;;;;7.08;68.79;100595.47;5020416;28;20161;-39
2022/10/09 04:17:44;;;;;;;5.10;1.73;;;;;;;7.06;69.31;100592.03;5024214;28;20046;-39
2022/10/09 04:20:10;;;;;;;7.18;2.20;;;;;;;7.09;69.50;100584.34;5029666;28;20049;-39
2022/10/09 04:22:37;;;;;;;5.65;1.67;;;;;;;7.09;69.97;100586.91;5030522;28;20072;-40
2022/10/09 04:25:04;;;;;;;5.97;2.03;;;;;;;7.06;70.25;100577.41;5029412;28;20085;-40
2022/10/09 04:27:31;;;;;;;7.03;1.48;;;;;;;7.10;68.76;100583.53;5029754;28;20049;-40
2022/10/09 04:29:57;;;;;;;5.65;1.70;;;;;;;7.10;69.22;100578.38;5014918;28;20145;-40
2022/10/09 04:32:24;;;;;;;6.00;1.20;;;;;;;7.10;69.00;100583.53;5015984;28;20145;-39
2022/10/09 04:34:50;;;;;;;5.63;1.75;;;;;;;7.10;68.64;100578.38;5018270;28;20461;-39
2022/10/09 04:37:17;;;;;;;3.05;1.67;;;;;;;7.06;70.40;100581.72;5020224;28;20065;-40
2022/10/09 04:39:44;;;;;;;9.50;1.70;;;;;;;7.03;68.90;100569.63;5003547;28;20141;-40
2022/10/09 04:42:10;;;;;;;4.60;1.70;;;;;;;7.02;69.92;100582.47;5004830;28;20065;-39
2022/10/09 04:44:37;;;;;;;9.57;2.10;;;;;;;7.00;69.71;100563.56;5004247;28;20129;-40
2022/10/09 04:47:03;;;;;;;1.88;0.77;;;;;;;6.96;70.32;100564.34;5012353;28;20095;-39
2022/10/09 04:49:35;;;;;;;5.40;1.48;;;;;;;6.91;69.23;100572.84;5009814;28;20053;-39
2022/10/09 04:52:02;;;;;;;10.38;2.03;;;;;;;6.88;68.95;100572.75;5014654;28;20049;-39
2022/10/09 04:54:29;;;;;;;4.57;1.60;;;;;;;6.86;68.89;100563.28;5008389;28;20077;-40
2022/10/09 04:56:55;;;;;;;4.15;1.42;;;;;;;6.84;69.28;100565.81;5011402;28;20131;-39
2022/10/09 04:59:22;;;;;;;6.25;1.52;;;;;;;6.82;69.43;100559.75;5007626;28;20057;-39
2022/10/09 05:01:48;;;;;;;3.47;1.60;;;;;;;6.79;69.79;100557.13;5005740;28;20144;-40
2022/10/09 05:04:15;;;;;;;7.25;1.65;;;;;;;6.75;69.36;100556.19;5014808;28;20493;-40
2022/10/09 05:06:41;;;;;;;5.45;1.65;;;;;;;6.74;69.91;100553.56;5011937;28;20103;-40
2022/10/09 05:09:08;;;;;;;8.98;2.08;;;;;;;6.75;69.46;100555.34;5005211;28;20509;-39
2022/10/09 05:11:35;;;;;;;5.95;1.30;;;;;;;6.73;69.71;100546.69;5005094;28;20129;-39
2022/10/09 05:14:07;;;;;;;4.63;1.38;;;;;;;6.71;68.69;100544.09;5010163;28;20072;-40
2022/10/09 05:16:34;;;;;;;6.72;1.60;;;;;;;6.69;68.49;100546.63;5008398;28;20117;-39
2022/10/09 05:19:21;;;;;;;4.47;1.27;;;;;;;6.68;69.87;100550.03;5013374;28;20485;-39
2022/10/09 05:21:47;;;;;;;12.80;1.42;;;;;;;6.66;69.25;100541.41;5016826;28;20238;-39
2022/10/09 05:24:14;;;;;;;5.85;1.20;;;;;;;6.63;69.75;100541.38;5013270;28;20117;-40
2022/10/09 05:26:40;;;;;;;4.53;1.42;;;;;;;6.62;69.11;100544.75;5006036;28;20129;-39
2022/10/09 05:29:07;;;;;;;8.35;1.73;;;;;;;6.58;68.11;100537.81;5020240;28;20128;-39
2022/10/09 05:31:34;;;;;;;6.70;1.52;;;;;;;6.54;69.76;100531.72;5007361;28;20156;-38
2022/10/09 05:34:00;;;;;;;2.58;0.93;;;;;;;6.51;68.20;100535.94;5013586;28;20052;-40
2022/10/09 05:36:27;;;;;;;5.13;1.00;;;;;;;6.48;68.83;100536.72;5003820;28;20085;-40
2022/10/09 05:38:55;;;;;;;5.03;1.92;;;;;;;6.46;69.09;100527.25;5004349;28;20397;-39
2022/10/09 05:41:22;;;;;;;4.80;1.73;;;;;;;6.43;68.39;100528.91;5002883;28;20673;-39
2022/10/09 05:43:49;;;;;;;7.05;1.58;;;;;;;6.41;68.82;100520.28;5010523;28;20178;-39
2022/10/09 05:46:18;;;;;;;2.58;1.15;;;;;;;6.40;69.08;100520.25;5012343;28;20049;-39
2022/10/09 05:48:51;;;;;;;4.40;1.58;;;;;;;6.40;69.51;100513.41;5038170;28;20872;-39
2022/10/09 05:51:21;;;;;;;5.47;1.80;;;;;;;6.40;70.04;100518.56;5012531;28;20046;-40
2022/10/09 05:53:49;;;;;;;4.88;1.65;;;;;;;6.40;69.12;100513.41;5007853;28;20063;-39
2022/10/09 05:58:55;;;;;;;3.88;1.67;;;;;;;6.41;69.29;100510.00;5082299;27;20413;-40
2022/10/09 06:01:24;;;;;;;8.82;2.22;;;;;;;6.41;70.59;100512.56;5073908;28;20136;-39
2022/10/09 06:03:53;;;;;;;4.82;1.80;;;;;;;6.40;70.43;100505.69;5074244;28;20048;-40
2022/10/09 06:06:22;;;;;;;3.75;2.42;;;;;;;6.43;70.99;100500.59;5075161;28;20058;-41
2022/10/09 06:08:48;;;;;;;2.15;1.35;;;;;;;6.42;70.58;100495.44;5076386;28;20475;-40
2022/10/09 06:11:22;;;;;;;10.32;3.63;;;;;;;6.41;71.64;100498.84;5077747;28;20079;-39
2022/10/09 06:13:50;;;;;;;6.88;2.10;;;;;;;6.42;70.33;100498.03;5082137;28;20050;-40
2022/10/09 06:16:17;;;;;;;4.47;1.88;;;;;;;6.43;70.53;100503.16;5079539;28;20125;-40
2022/10/09 06:18:46;;;;;;;3.03;2.20;;;;;;;6.44;71.87;100493.75;5078732;28;20048;-39
2022/10/09 06:21:15;;;;;;;6.90;2.50;;;;;;;6.48;71.04;100495.56;5080859;28;20055;-40
2022/10/09 06:23:42;;;;;;;7.57;1.35;;;;;;;6.52;71.34;100492.22;5080069;28;20567;-40
2022/10/09 06:26:12;;;;;;;7.28;2.13;;;;;;;6.54;72.44;100499.97;5074749;28;20492;-39
2022/10/09 06:28:39;;;;;;;5.10;2.28;;;;;;;6.61;71.89;100500.97;5079140;28;20056;-40
2022/10/09 06:31:09;;;;;;;5.65;2.42;;;;;;;6.65;71.50;100500.19;5076993;28;20045;-41
2022/10/09 06:33:37;;;;;;;7.45;2.17;;;;;;;6.66;73.43;100496.78;5075889;28;20131;-40
2022/10/09 06:36:08;;;;;;;6.60;2.00;;;;;;;6.71;72.15;100491.72;5079664;28;20072;-40
2022/10/09 06:38:37;;;;;;;4.68;2.03;;;;;;;6.77;71.87;100484.13;5075335;28;20472;-40
2022/10/09 06:41:06;;;;;;;5.57;2.25;;;;;;;6.79;73.04;100487.63;5060348;28;20070;-40
2022/10/09 06:43:33;;;;;;;2.22;1.75;;;;;;;6.77;74.31;100481.56;5072959;28;20103;-40
2022/10/09 06:46:01;;;;;;;3.97;2.25;;;;;;;6.86;72.79;100486.03;5072336;28;20079;-41
2022/10/09 06:48:30;;;;;;;4.18;2.17;;;;;;;6.86;73.90;100484.28;5075404;28;20051;-41
2022/10/09 06:53:45;;;;;;;5.82;2.53;;;;;;;6.98;73.35;100485.38;5038852;28;20422;-41
2022/10/09 06:56:12;;;;;;;4.80;1.30;;;;;;;7.02;72.91;100489.75;5037204;28;20513;-40
2022/10/09 06:58:39;;;;;;;2.58;1.27;;;;;;;7.08;74.23;100482.16;5030669;28;20038;-42
2022/10/09 07:03:44;;;;;;;4.28;1.75;;;;;;;7.13;74.16;100484.81;5048913;27;20414;-39
2022/10/09 07:08:53;;;;;;;8.68;3.22;;;;;;;7.26;74.38;100483.34;5040183;28;20415;-40
2022/10/09 07:11:22;;;;;;;7.50;2.38;;;;;;;7.28;73.74;100479.94;4995684;28;20120;-40
2022/10/09 07:13:53;;;;;;;4.63;1.60;;;;;;;7.40;74.12;100479.28;4992056;28;21947;-45
2022/10/09 07:16:22;;;;;;;5.63;2.42;;;;;;;7.46;73.47;100474.22;4977592;28;20069;-40
2022/10/09 07:18:50;;;;;;;6.28;2.67;;;;;;;7.53;74.83;100474.34;4995899;28;20046;-40
2022/10/09 07:21:17;;;;;;;3.92;2.17;;;;;;;7.63;74.33;100476.22;4993757;28;20057;-41
2022/10/09 07:23:44;;;;;;;2.50;2.22;;;;;;;7.70;73.83;100472.91;4996705;28;20066;-40
2022/10/09 07:28:48;;;;;;;2.58;1.17;;;;;;;7.89;74.54;100465.44;5024610;28;20798;-40
2022/10/09 07:31:16;;;;;;;4.25;1.08;;;;;;;8.00;75.00;100467.34;5018464;28;20053;-41
2022/10/09 07:33:46;;;;;;;7.35;1.73;;;;;;;8.13;74.54;100461.50;5015483;28;20069;-40
2022/10/09 07:36:13;;;;;;;4.88;1.20;;;;;;;8.23;73.59;100463.34;5019058;28;20125;-40
2022/10/09 07:38:40;;;;;;;6.93;1.52;;;;;;;8.34;74.98;100475.50;5016665;28;20085;-41
2022/10/09 07:41:10;;;;;;;7.07;1.02;;;;;;;8.46;74.35;100470.53;5013970;28;20209;-42
2022/10/09 07:43:38;;;;;;;2.72;0.88;;;;;;;8.52;74.48;100474.03;5014178;28;20042;-40
2022/10/09 07:46:08;;;;;;;6.72;1.45;;;;;;;8.67;74.43;100463.94;5008584;28;20046;-40
2022/10/09 07:48:36;;;;;;;4.13;1.00;;;;;;;8.76;74.13;100462.28;5018516;28;20046;-42
2022/10/09 07:53:44;;;;;;;6.47;1.00;;;;;;;8.99;73.72;100450.50;5079039;27;20389;-39
2022/10/09 07:56:16;;;;;;;5.18;1.38;;;;;;;9.09;73.47;100450.59;5020550;28;20112;-39
2022/10/09 07:58:48;;;;;;;4.70;1.27;;;;;;;9.31;73.15;100455.97;5021269;28;20508;-39
2022/10/09 08:01:15;;;;;;;9.30;1.70;;;;;;;9.49;73.05;100453.53;5029558;28;20689;-39
2022/10/09 08:03:46;;;;;;;3.10;0.95;;;;;;;9.64;72.62;100454.53;5015374;28;20136;-40
2022/10/09 08:06:14;;;;;;;3.25;1.13;;;;;;;9.83;72.03;100444.31;5001412;28;20107;-40
2022/10/09 08:08:41;;;;;;;6.43;1.63;;;;;;;10.03;71.94;100447.88;5051854;28;20045;-41
2022/10/09 08:11:10;;;;;;;5.75;1.50;;;;;;;10.61;71.55;100444.72;5015171;28;20116;-41
2022/10/09 08:13:37;;;;;;;4.38;1.25;;;;;;;11.32;69.69;100447.44;5017156;28;20046;-41
2022/10/09 08:16:04;;;;;;;4.97;1.27;;;;;;;12.08;68.46;100441.38;5019999;28;20049;-41
2022/10/09 08:18:31;;;;;;;5.15;0.70;;;;;;;12.77;65.93;100435.88;5017821;28;20060;-41
2022/10/09 08:21:00;;;;;;;2.28;0.95;;;;;;;13.46;64.92;100436.28;5018970;28;20133;-41
2022/10/09 08:23:28;;;;;;;3.80;1.63;;;;;;;14.01;62.82;100438.38;5020238;28;20129;-40
2022/10/09 08:25:55;;;;;;;4.35;1.20;;;;;;;14.38;61.68;100424.94;5016749;28;20050;-40
2022/10/09 08:28:22;;;;;;;3.13;0.98;;;;;;;14.62;61.38;100430.72;5021005;28;20069;-41
2022/10/09 08:30:48;;;;;;;5.68;1.05;;;;;;;15.12;60.58;100422.22;5017446;28;20136;-41
2022/10/09 08:33:20;;;;;;;3.65;1.10;;;;;;;15.80;58.60;100421.94;5011513;28;20062;-42
2022/10/09 08:35:48;;;;;;;5.30;1.52;;;;;;;16.13;57.47;100417.00;5017405;28;20461;-42
2022/10/09 08:38:16;;;;;;;3.53;1.00;;;;;;;16.11;56.81;100416.16;5014617;28;20049;-42
2022/10/09 08:43:44;;;;;;;5.28;1.13;;;;;;;16.24;57.26;100408.09;5005835;28;20405;-41
2022/10/09 08:46:19;;;;;;;2.10;0.93;;;;;;;16.43;56.93;100417.25;5000643;28;20473;-39
2022/10/09 08:48:49;;;;;;;2.70;0.98;;;;;;;16.61;56.81;100420.34;4997944;28;20425;-42
2022/10/09 08:51:28;;;;;;;3.50;1.40;;;;;;;16.93;56.63;100416.13;4998999;28;20125;-41
2022/10/09 08:54:10;;;;;;;4.65;1.27;;;;;;;17.45;54.31;100413.19;4998927;28;20050;-41
2022/10/09 08:56:38;;;;;;;5.82;1.33;;;;;;;18.01;54.84;100409.97;4994892;28;20053;-41
2022/10/09 08:59:05;;;;;;;4.38;1.10;;;;;;;18.56;53.62;100401.44;4999286;28;20125;-42
2022/10/09 09:01:47;;;;;;;4.78;1.60;;;;;;;19.18;52.31;100394.25;4999912;28;20054;-40
2022/10/09 09:07:19;;;;;;;3.80;0.95;;;;;;;20.21;50.84;100393.34;5095392;27;20390;-42
2022/10/09 09:12:43;;;;;;;5.00;2.28;;;;;;;21.23;48.63;100381.47;5059403;28;20402;-42
2022/10/09 09:15:43;;;;;;;4.95;2.13;;;;;;;21.64;46.38;100378.84;5076285;28;20135;-43
2022/10/09 09:21:05;;;;;;;6.60;1.38;;;;;;;21.66;45.20;100370.88;5091710;27;20396;-41
2022/10/09 09:23:39;;;;;;;4.70;1.35;;;;;;;21.93;45.73;100373.25;5017071;28;20544;-40
2022/10/09 09:26:14;;;;;;;4.50;1.25;;;;;;;22.08;45.45;100369.03;5045654;28;20129;-41
2022/10/09 09:28:43;;;;;;;3.00;1.65;;;;;;;22.31;46.15;100367.97;5018684;28;20116;-40
2022/10/09 09:33:57;;;;;;;3.03;0.80;;;;;;;22.72;44.94;100359.03;5079078;27;20400;-41
2022/10/09 09:36:47;;;;;;;4.43;1.65;;;;;;;22.88;43.24;100357.41;5061561;28;20492;-43
2022/10/09 09:39:14;;;;;;;4.60;0.80;;;;;;;23.16;44.68;100354.25;5038530;28;20166;-42
2022/10/09 09:42:20;;;;;;;5.45;1.15;;;;;;;23.51;44.30;100358.69;5040730;28;20591;-41
2022/10/09 09:44:59;;;;;;;1.65;0.68;;;;;;;23.75;44.17;100360.97;5037883;28;20077;-41
2022/10/09 09:47:32;;;;;;;3.70;0.88;;;;;;;23.67;42.60;100357.88;5041838;28;20056;-43
2022/10/09 09:50:01;;;;;;;2.22;0.80;;;;;;;23.51;42.74;100347.25;5056084;28;20083;-44
2022/10/09 09:52:34;;;;;;;4.45;0.70;;;;;;;23.41;43.69;100352.16;5059918;28;20135;-43
2022/10/09 09:55:01;;;;;;;5.15;1.02;;;;;;;23.55;42.94;100348.78;5045105;28;20045;-43
2022/10/09 09:57:33;;;;;;;4.00;0.93;;;;;;;23.69;43.42;100348.06;5040440;28;20118;-43
2022/10/09 10:03:02;;;;;;;3.97;1.30;;;;;;;23.76;41.75;100328.28;5051077;27;20391;-43
2022/10/09 10:05:35;;;;;;;1.73;0.50;;;;;;;23.66;41.74;100316.50;5018119;28;20077;-43
2022/10/09 10:08:13;;;;;;;4.22;0.68;;;;;;;23.84;42.08;100315.50;5009115;28;20418;-44
2022/10/09 10:10:50;;;;;;;5.72;0.60;;;;;;;24.06;42.60;100310.81;5008537;28;20581;-42
2022/10/09 10:13:21;;;;;;;4.85;1.05;;;;;;;24.01;41.87;100303.13;4996791;28;20395;-45
2022/10/09 10:15:51;;;;;;;4.18;0.90;;;;;;;24.27;41.77;100303.50;5010264;28;20647;-42
2022/10/09 10:18:19;;;;;;;6.55;0.82;;;;;;;24.23;41.97;100308.13;4999236;28;20441;-45
2022/10/09 10:20:51;;;;;;;2.78;0.60;;;;;;;24.38;42.30;100303.75;4998097;28;20089;-43
2022/10/09 10:23:50;;;;;;;2.88;0.43;;;;;;;24.59;41.79;100298.16;5012466;28;20192;-46
2022/10/09 10:26:42;;;;;;;3.88;1.08;;;;;;;24.49;41.03;100292.53;5008098;28;20042;-44
2022/10/09 10:37:52;;;;;;;2.65;1.08;;;;;;;23.87;40.38;100270.38;5030697;27;20413;-44
2022/10/09 10:46:16;;;;;;;2.88;0.65;;;;;;;22.18;42.07;100258.69;5024574;27;20415;-43
2022/10/09 10:48:45;;;;;;;5.45;0.65;;;;;;;21.94;43.09;100264.19;4997822;28;20050;-44
2022/10/09 11:02:39;;;;;;;4.72;2.03;;;;;;;20.72;45.65;100243.16;5050829;27;20413;-42
2022/10/09 11:05:13;;;;;;;;;;;;;;;20.26;46.28;100235.34;5036248;28;20443;-42
2022/10/09 11:21:39;;;;;;;4.45;1.85;;;;;;;19.44;47.88;100206.03;5038142;27;20389;-42
2022/10/09 11:29:29;;;;;;;8.70;0.70;;;;;;;19.64;48.09;100201.81;5081522;27;20408;-42
2022/10/09 11:32:04;;;;;;;5.35;1.05;;;;;;;19.64;48.01;100205.31;5078922;28;20522;-42
2022/10/09 11:34:40;;;;;;;4.72;0.90;;;;;;;19.64;48.22;100201.81;5082976;28;20131;-42
2022/10/09 11:37:16;;;;;;;3.20;1.38;;;;;;;19.58;46.58;100199.41;5074584;28;20166;-41
2022/10/09 11:39:44;;;;;;;2.78;0.75;;;;;;;19.44;47.00;100190.28;5073754;28;20099;-42
2022/10/09 11:42:16;;;;;;;5.05;0.77;;;;;;;19.32;47.29;100206.50;5066665;28;20067;-42
2022/10/09 11:48:11;;;;;;;4.57;1.50;;;;;;;19.26;46.95;100182.16;5021855;27;20402;-40
2022/10/09 11:53:24;;;;;;;4.38;0.90;;;;;;;19.40;46.17;100162.44;5078933;27;20390;-40
2022/10/09 11:56:28;;;;;;;5.38;0.82;;;;;;;19.41;45.90;100166.75;5043281;28;20037;-41
2022/10/09 12:06:53;;;;;;;3.70;0.80;;;;;;;19.38;46.05;100153.75;5028767;28;20400;-43
2022/10/09 12:09:25;;;;;;;4.88;0.68;;;;;;;19.40;46.27;100146.69;5011025;28;20107;-40
2022/10/09 12:11:58;;;;;;;4.28;0.68;;;;;;;19.35;45.73;100146.84;5014194;28;20137;-41
2022/10/09 12:14:26;;;;;;;4.75;0.98;;;;;;;19.34;46.37;100141.66;5012364;28;20133;-40
2022/10/09 12:16:54;;;;;;;3.65;1.80;;;;;;;19.34;46.53;100139.88;5014275;28;20080;-40
2022/10/09 12:19:36;;;;;;;2.45;0.60;;;;;;;19.32;45.79;100143.50;5006087;28;20050;-41
2022/10/09 12:24:44;;;;;;;5.85;0.70;;;;;;;19.27;46.63;100130.53;5036317;27;20395;-40
2022/10/09 12:27:20;;;;;;;7.07;1.20;;;;;;;19.17;46.60;100130.00;5000593;28;20129;-40
2022/10/09 12:29:53;;;;;;;4.60;1.02;;;;;;;19.09;46.49;100122.44;5016635;28;20770;-41
2022/10/09 12:32:33;;;;;;;4.25;0.93;;;;;;;19.02;47.00;100111.25;5002614;28;20085;-40
2022/10/09 12:35:03;;;;;;;3.85;1.23;;;;;;;18.95;46.60;100115.03;5001681;28;20105;-41
2022/10/09 12:37:33;;;;;;;4.97;0.93;;;;;;;18.90;47.61;100103.84;5001260;28;20513;-40
2022/10/09 12:40:14;;;;;;;3.25;0.70;;;;;;;18.75;47.71;100097.41;4985982;28;20556;-41
2022/10/09 12:42:43;;;;;;;3.55;0.98;;;;;;;18.68;47.91;100091.50;5004419;28;20573;-40
2022/10/09 12:45:18;;;;;;;3.28;0.82;;;;;;;18.60;47.85;100104.03;5000528;28;20098;-40
2022/10/09 12:47:45;;;;;;;3.25;0.85;;;;;;;18.59;47.78;100091.84;5001702;28;20050;-40
2022/10/09 12:52:56;;;;;;;6.18;2.00;;;;;;;18.54;48.02;100071.00;5073926;27;20417;-41
2022/10/09 12:55:29;;;;;;;4.32;1.55;;;;;;;18.59;47.83;100060.38;5052281;28;20124;-42
2022/10/09 12:57:59;;;;;;;4.85;1.40;;;;;;;18.47;48.47;100057.28;5052091;28;20140;-40
2022/10/09 13:00:26;;;;;;;3.58;1.80;;;;;;;18.57;48.09;100054.31;5045826;28;20102;-40
2022/10/09 13:02:53;;;;;;;4.45;1.67;;;;;;;18.59;48.38;100049.88;5048637;28;20117;-42
2022/10/09 13:05:20;;;;;;;2.60;0.88;;;;;;;18.52;48.18;100038.75;5052366;28;20449;-42
2022/10/09 13:07:53;;;;;;;2.17;1.40;;;;;;;18.41;48.73;100036.50;5054272;28;20082;-41
2022/10/09 13:10:22;;;;;;;7.07;2.03;;;;;;;18.39;48.37;100027.84;5049276;28;20079;-42
2022/10/09 13:12:51;;;;;;;5.68;2.20;;;;;;;18.39;48.98;100027.84;5053978;28;20133;-41
2022/10/09 13:15:30;;;;;;;3.83;2.15;;;;;;;18.36;49.15;100022.72;5040536;28;20140;-40
2022/10/09 13:17:57;;;;;;;5.40;1.75;;;;;;;18.37;49.18;100022.66;5058947;28;20099;-42
2022/10/09 13:20:29;;;;;;;7.00;2.17;;;;;;;18.35;49.51;100015.75;5044085;28;20526;-41
2022/10/09 13:22:59;;;;;;;5.53;1.50;;;;;;;18.37;49.55;100012.16;5065381;28;20107;-42
2022/10/09 13:25:32;;;;;;;3.50;0.85;;;;;;;18.40;49.68;100019.06;5042959;28;20642;-42
2022/10/09 13:27:58;;;;;;;4.32;2.35;;;;;;;18.40;49.60;100003.31;5072893;28;20052;-41
2022/10/09 13:30:27;;;;;;;3.05;1.40;;;;;;;18.49;49.82;100008.25;5068904;28;20127;-41
2022/10/09 13:32:54;;;;;;;2.47;1.70;;;;;;;18.56;49.70;100000.16;5067007;28;20044;-42
2022/10/09 13:35:20;;;;;;;5.07;3.05;;;;;;;18.51;49.38;99987.22;5065360;28;20045;-43
2022/10/09 13:37:48;;;;;;;4.93;1.77;;;;;;;18.49;49.61;99982.03;5079663;28;20143;-42
2022/10/09 13:40:18;;;;;;;5.60;2.08;;;;;;;18.52;49.84;99972.31;5090912;28;20048;-41
2022/10/09 13:42:52;;;;;;;2.85;2.05;;;;;;;18.59;49.51;99968.56;5070001;28;20136;-42